createdAt,value
2018-11-27T00:00:34.726Z,21.80
2018-11-27T00:03:06.133Z,21.60
2018-11-27T00:05:35.960Z,19.35
2018-11-27T00:08:04.850Z,21.52
2018-11-27T00:10:34.965Z,20.90
2018-11-27T00:13:03.931Z,18.65
2018-11-27T00:15:32.785Z,21.23
2018-11-27T00:18:02.133Z,20.35
2018-11-27T00:20:31.129Z,20.43
2018-11-27T00:23:00.001Z,19.45
2018-11-27T00:25:28.875Z,19.20
2018-11-27T00:27:57.835Z,19.62
2018-11-27T00:30:26.727Z,19.35
2018-11-27T00:32:55.577Z,19.73
2018-11-27T00:35:24.498Z,19.32
2018-11-27T00:37:53.373Z,17.32
2018-11-27T00:40:23.245Z,20.57
2018-11-27T00:42:52.479Z,17.85
2018-11-27T00:45:21.891Z,19.60
2018-11-27T00:47:51.496Z,18.52
2018-11-27T00:50:24.288Z,18.85
2018-11-27T00:52:53.040Z,18.65
2018-11-27T00:55:22.235Z,19.75
2018-11-27T00:57:52.374Z,19.23
2018-11-27T01:00:24.384Z,19.50
2018-11-27T01:02:53.283Z,19.07
2018-11-27T01:05:23.801Z,19.00
2018-11-27T01:07:52.636Z,19.48
2018-11-27T01:10:22.642Z,19.07
2018-11-27T01:12:51.501Z,18.40
2018-11-27T01:15:20.361Z,21.73
2018-11-27T01:17:51.455Z,21.07
2018-11-27T01:20:21.138Z,20.15
2018-11-27T01:22:49.984Z,18.95
2018-11-27T01:25:18.948Z,21.23
2018-11-27T01:27:47.835Z,19.67
2018-11-27T01:30:20.422Z,18.35
2018-11-27T01:32:49.786Z,21.42
2018-11-27T01:35:20.912Z,20.52
2018-11-27T01:37:50.749Z,21.48
2018-11-27T01:40:20.776Z,20.35
2018-11-27T01:42:51.528Z,20.00
2018-11-27T01:45:21.118Z,20.72
2018-11-27T01:47:50.003Z,22.22
2018-11-27T01:50:19.607Z,20.12
2018-11-27T01:52:48.561Z,19.52
2018-11-27T01:55:18.393Z,18.55
2018-11-27T01:57:47.326Z,19.02
2018-11-27T02:00:28.830Z,18.82
2018-11-27T02:02:59.762Z,21.00
2018-11-27T02:05:28.900Z,21.65
2018-11-27T02:07:57.847Z,20.27
2018-11-27T02:10:26.715Z,20.57
2018-11-27T02:13:00.993Z,20.85
2018-11-27T02:15:28.949Z,20.70
2018-11-27T02:17:58.552Z,18.73
2018-11-27T02:20:28.055Z,20.97
2018-11-27T02:22:58.353Z,20.92
2018-11-27T02:25:31.620Z,20.37
2018-11-27T02:28:01.066Z,20.88
2018-11-27T02:30:30.443Z,20.72
2018-11-27T02:33:00.786Z,19.87
2018-11-27T02:35:30.347Z,18.67
2018-11-27T02:37:59.766Z,19.48
2018-11-27T02:40:29.822Z,20.02
2018-11-27T02:42:59.662Z,19.67
2018-11-27T02:45:29.147Z,20.37
2018-11-27T02:47:58.632Z,19.30
2018-11-27T02:50:28.851Z,19.98
2018-11-27T02:52:58.308Z,19.92
2018-11-27T02:55:27.646Z,20.92
2018-11-27T02:57:57.052Z,21.17
2018-11-27T03:00:27.928Z,19.45
2018-11-27T03:02:57.360Z,22.00
2018-11-27T03:05:37.664Z,22.17
2018-11-27T03:08:07.142Z,21.70
2018-11-27T03:10:36.285Z,21.02
2018-11-27T03:13:06.841Z,20.37
2018-11-27T03:15:36.133Z,20.52
2018-11-27T03:18:10.805Z,21.90
2018-11-27T03:20:40.019Z,22.98
2018-11-27T03:23:09.568Z,22.95
2018-11-27T03:25:39.438Z,23.73
2018-11-27T03:28:08.789Z,22.17
2018-11-27T03:30:37.960Z,20.52
2018-11-27T03:33:07.632Z,24.07
2018-11-27T03:35:37.611Z,24.77
2018-11-27T03:38:06.766Z,23.80
2018-11-27T03:40:35.619Z,22.40
2018-11-27T03:43:04.455Z,24.98
2018-11-27T03:45:33.248Z,21.42
2018-11-27T03:48:02.112Z,24.30
2018-11-27T03:50:31.865Z,23.95
2018-11-27T03:53:00.744Z,23.60
2018-11-27T03:55:29.623Z,22.07
2018-11-27T03:57:58.444Z,24.40
2018-11-27T04:00:28.466Z,22.37
2018-11-27T04:03:00.115Z,24.35
2018-11-27T04:05:29.050Z,23.55
2018-11-27T04:07:57.877Z,24.65
2018-11-27T04:10:26.875Z,22.25
2018-11-27T04:12:55.709Z,22.73
2018-11-27T04:15:24.564Z,24.50
2018-11-27T04:17:53.316Z,23.00
2018-11-27T04:20:22.171Z,22.10
2018-11-27T04:22:51.033Z,21.35
2018-11-27T04:25:19.983Z,24.02
2018-11-27T04:27:48.949Z,23.77
2018-11-27T04:30:20.609Z,23.77
2018-11-27T04:32:49.463Z,22.42
2018-11-27T04:35:20.321Z,23.50
2018-11-27T04:37:49.339Z,23.35
2018-11-27T04:40:21.865Z,21.75
2018-11-27T04:42:50.861Z,23.00
2018-11-27T04:45:21.939Z,25.02
2018-11-27T04:47:50.816Z,24.07
2018-11-27T04:50:19.974Z,24.00
2018-11-27T04:52:48.948Z,23.50
2018-11-27T04:55:19.847Z,24.75
2018-11-27T04:57:48.726Z,24.25
2018-11-27T05:00:22.274Z,23.47
2018-11-27T05:02:51.368Z,25.70
2018-11-27T05:05:20.183Z,22.55
2018-11-27T05:07:49.046Z,24.30
2018-11-27T05:10:19.646Z,25.57
2018-11-27T05:12:48.517Z,24.47
2018-11-27T05:15:21.729Z,23.85
2018-11-27T05:17:51.965Z,26.05
2018-11-27T05:20:20.808Z,25.12
2018-11-27T05:22:49.724Z,23.85
2018-11-27T05:25:19.364Z,23.52
2018-11-27T05:27:49.229Z,24.37
2018-11-27T05:30:18.994Z,26.10
2018-11-27T05:32:47.894Z,25.95
2018-11-27T05:35:18.192Z,25.40
2018-11-27T05:37:48.024Z,25.60
2018-11-27T05:40:18.470Z,26.65
2018-11-27T05:42:48.207Z,25.85
2018-11-27T05:45:19.196Z,25.15
2018-11-27T05:47:48.147Z,25.82
2018-11-27T05:50:17.931Z,24.90
2018-11-27T05:52:46.878Z,26.12
2018-11-27T05:55:16.280Z,27.35
2018-11-27T05:57:46.934Z,27.13
2018-11-27T06:00:18.654Z,25.60
2018-11-27T06:02:48.416Z,24.15
2018-11-27T06:05:19.837Z,24.23
2018-11-27T06:07:48.780Z,24.95
2018-11-27T06:10:19.291Z,25.45
2018-11-27T06:12:48.346Z,26.93
2018-11-27T06:15:18.496Z,26.07
2018-11-27T06:17:48.517Z,26.45
2018-11-27T06:20:18.421Z,25.23
2018-11-27T06:22:47.487Z,25.35
2018-11-27T06:25:17.414Z,24.85
2018-11-27T06:27:47.595Z,27.42
2018-11-27T06:30:17.789Z,27.17
2018-11-27T06:32:46.861Z,28.98
2018-11-27T06:35:19.894Z,26.15
2018-11-27T06:37:48.873Z,26.82
2018-11-27T06:40:20.079Z,26.37
2018-11-27T06:42:49.368Z,25.55
2018-11-27T06:45:19.290Z,27.82
2018-11-27T06:50:15.796Z,27.90
2018-11-27T06:52:44.643Z,27.05
2018-11-27T06:55:16.309Z,28.07
2018-11-27T06:57:45.635Z,26.85
2018-11-27T07:00:31.295Z,26.37
2018-11-27T07:03:00.291Z,24.92
2018-11-27T07:05:29.051Z,28.77
2018-11-27T07:07:57.814Z,25.70
2018-11-27T07:10:32.875Z,25.43
2018-11-27T07:13:07.268Z,25.43
2018-11-27T07:15:36.115Z,26.68
2018-11-27T07:18:05.609Z,27.20
2018-11-27T07:20:39.135Z,27.52
2018-11-27T07:23:08.443Z,27.82
2018-11-27T07:25:37.944Z,27.52
2018-11-27T07:28:06.984Z,28.25
2018-11-27T07:30:38.166Z,28.00
2018-11-27T07:33:10.816Z,27.62
2018-11-27T07:35:39.879Z,26.80
2018-11-27T07:38:16.407Z,29.40
2018-11-27T07:40:45.624Z,27.93
2018-11-27T07:43:15.461Z,27.80
2018-11-27T07:45:44.240Z,26.33
2018-11-27T07:48:13.023Z,27.62
2018-11-27T07:50:41.840Z,27.93
2018-11-27T07:53:10.599Z,28.65
2018-11-27T07:55:43.391Z,26.07
2018-11-27T07:58:20.395Z,29.12
2018-11-27T08:00:51.883Z,27.90
2018-11-27T08:03:25.641Z,30.57
2018-11-27T08:05:56.632Z,29.23
2018-11-27T08:08:27.645Z,26.87
2018-11-27T08:11:00.474Z,28.05
2018-11-27T08:13:33.866Z,28.40
2018-11-27T08:16:12.395Z,26.35
2018-11-27T08:18:45.575Z,28.70
2018-11-27T08:21:19.753Z,27.70
2018-11-27T08:23:54.689Z,26.23
2018-11-27T08:26:27.636Z,28.05
2018-11-27T08:28:56.523Z,30.57
2018-11-27T08:31:28.081Z,30.37
2018-11-27T08:34:02.444Z,30.27
2018-11-27T08:36:34.380Z,31.05
2018-11-27T08:39:09.673Z,26.87
2018-11-27T08:41:43.115Z,28.10
2018-11-27T08:44:12.387Z,29.67
2018-11-27T08:46:42.420Z,28.38
2018-11-27T08:49:11.240Z,29.35
2018-11-27T08:51:47.623Z,28.73
2018-11-27T08:54:17.000Z,27.50
2018-11-27T08:56:50.607Z,27.48
2018-11-27T08:59:25.426Z,28.02
2018-11-27T09:01:54.551Z,27.07
2018-11-27T09:04:23.921Z,26.97
2018-11-27T09:06:56.102Z,29.10
2018-11-27T09:09:28.354Z,28.83
2018-11-27T09:11:58.328Z,30.08
2018-11-27T09:14:27.172Z,27.90
2018-11-27T09:16:57.014Z,30.20
2018-11-27T09:19:25.814Z,30.10
2018-11-27T09:21:54.739Z,25.43
2018-11-27T09:24:23.679Z,29.30
2018-11-27T09:26:55.310Z,26.35
2018-11-27T09:29:24.773Z,28.47
2018-11-27T09:31:52.982Z,26.42
2018-11-27T09:34:21.755Z,27.37
2018-11-27T09:36:50.509Z,28.77
2018-11-27T09:39:19.392Z,27.60
2018-11-27T09:41:54.722Z,27.05
2018-11-27T09:44:23.567Z,27.98
2018-11-27T09:46:52.361Z,26.60
2018-11-27T09:49:21.137Z,25.27
2018-11-27T09:51:49.967Z,27.93
2018-11-27T09:54:18.817Z,26.25
2018-11-27T09:56:48.477Z,27.95
2018-11-27T10:02:36.974Z,23.40
2018-11-27T10:05:06.782Z,25.00
2018-11-27T10:07:35.564Z,26.02
2018-11-27T10:10:05.793Z,26.75
2018-11-27T10:12:34.679Z,27.70
2018-11-27T10:15:03.937Z,25.15
2018-11-27T10:17:32.836Z,25.00
2018-11-27T10:20:01.724Z,24.05
2018-11-27T10:22:30.734Z,26.33
2018-11-27T10:24:59.572Z,25.45
2018-11-27T10:27:29.169Z,24.80
2018-11-27T10:29:58.054Z,25.95
2018-11-27T10:32:26.881Z,25.62
2018-11-27T10:34:55.668Z,25.52
2018-11-27T10:37:24.536Z,26.75
2018-11-27T10:39:53.382Z,25.65
2018-11-27T10:42:22.253Z,26.35
2018-11-27T10:44:51.132Z,24.80
2018-11-27T10:47:19.998Z,25.70
2018-11-27T10:49:48.836Z,27.35
2018-11-27T10:52:17.665Z,24.72
2018-11-27T10:54:46.599Z,24.35
2018-11-27T10:57:15.390Z,25.12
2018-11-27T10:59:44.159Z,24.05
2018-11-27T11:02:19.090Z,22.02
2018-11-27T11:04:48.029Z,24.43
2018-11-27T11:07:16.903Z,24.95
2018-11-27T11:09:45.748Z,25.05
2018-11-27T11:12:14.603Z,24.77
2018-11-27T11:14:49.409Z,27.07
2018-11-27T11:17:19.819Z,25.35
2018-11-27T11:19:48.644Z,26.93
2018-11-27T11:22:17.515Z,27.20
2018-11-27T11:24:46.532Z,26.15
2018-11-27T11:27:15.429Z,26.73
2018-11-27T11:29:47.889Z,27.17
2018-11-27T11:32:16.688Z,22.80
2018-11-27T11:34:46.136Z,25.62
2018-11-27T11:37:15.080Z,24.52
2018-11-27T11:39:43.916Z,28.32
2018-11-27T11:42:12.735Z,25.45
2018-11-27T11:44:41.515Z,26.57
2018-11-27T11:47:10.641Z,24.30
2018-11-27T11:49:39.787Z,24.18
2018-11-27T11:52:08.616Z,24.15
2018-11-27T11:54:37.557Z,25.17
2018-11-27T11:57:06.607Z,24.82
2018-11-27T11:59:35.472Z,26.62
2018-11-27T12:02:05.500Z,27.02
2018-11-27T12:04:34.556Z,27.50
2018-11-27T12:07:03.647Z,26.55
2018-11-27T12:09:33.241Z,28.73
2018-11-27T12:12:02.440Z,25.45
2018-11-27T12:14:34.138Z,26.27
2018-11-27T12:17:03.930Z,23.20
2018-11-27T12:19:34.981Z,25.75
2018-11-27T12:22:03.902Z,25.08
2018-11-27T12:24:32.968Z,22.20
2018-11-27T12:27:01.891Z,22.17
2018-11-27T12:29:30.770Z,24.00
2018-11-27T12:32:00.867Z,24.23
2018-11-27T12:34:35.993Z,21.33
2018-11-27T12:37:15.437Z,23.20
2018-11-27T12:39:47.999Z,22.27
2018-11-27T12:42:18.864Z,24.35
2018-11-27T12:44:53.278Z,24.70
2018-11-27T12:47:25.256Z,24.52
2018-11-27T12:49:58.978Z,29.72
2018-11-27T12:52:44.773Z,27.40
2018-11-27T12:58:01.687Z,25.52
2018-11-27T13:00:30.506Z,25.55
2018-11-27T13:02:59.364Z,23.35
2018-11-27T13:05:30.361Z,25.82
2018-11-27T13:08:01.385Z,26.23
2018-11-27T13:10:30.265Z,26.55
2018-11-27T13:12:59.123Z,27.55
2018-11-27T13:15:27.922Z,25.88
2018-11-27T13:17:56.741Z,25.52
2018-11-27T13:20:28.609Z,26.12
2018-11-27T13:22:57.446Z,25.70
2018-11-27T13:25:26.162Z,26.42
2018-11-27T13:27:55.909Z,23.80
2018-11-27T13:30:38.589Z,25.75
2018-11-27T13:33:12.020Z,26.48
2018-11-27T13:35:44.047Z,25.88
2018-11-27T13:38:12.829Z,24.47
2018-11-27T13:40:41.864Z,27.55
2018-11-27T13:43:11.683Z,24.75
2018-11-27T13:45:40.406Z,23.52
2018-11-27T13:48:09.650Z,24.12
2018-11-27T13:50:38.483Z,23.22
2018-11-27T13:53:07.337Z,25.30
2018-11-27T13:55:36.208Z,31.17
2018-11-27T13:58:04.993Z,26.95
2018-11-27T14:00:33.773Z,26.07
2018-11-27T14:03:03.892Z,25.45
2018-11-27T14:05:40.728Z,25.72
2018-11-27T14:08:10.413Z,23.98
2018-11-27T14:10:39.647Z,24.27
2018-11-27T14:13:09.457Z,24.27
2018-11-27T14:15:38.455Z,23.10
2018-11-27T14:18:07.930Z,25.05
2018-11-27T14:20:36.856Z,25.05
2018-11-27T14:23:06.372Z,24.95
2018-11-27T14:25:36.764Z,27.00
2018-11-27T14:28:10.472Z,23.65
2018-11-27T14:30:40.091Z,25.20
2018-11-27T14:33:08.870Z,25.40
2018-11-27T14:35:37.653Z,24.32
2018-11-27T14:38:06.847Z,24.07
2018-11-27T14:40:35.604Z,24.40
2018-11-27T14:43:04.515Z,24.20
2018-11-27T14:45:33.231Z,24.87
2018-11-27T14:48:01.983Z,27.42
2018-11-27T14:50:30.682Z,24.02
2018-11-27T14:52:59.548Z,22.80
2018-11-27T14:55:30.496Z,22.90
2018-11-27T14:57:59.332Z,24.07
2018-11-27T15:00:28.457Z,25.92
2018-11-27T15:02:58.031Z,24.90
2018-11-27T15:05:33.980Z,23.87
2018-11-27T15:08:04.109Z,24.87
2018-11-27T15:10:33.433Z,24.18
2018-11-27T15:13:05.931Z,23.55
2018-11-27T15:15:34.817Z,24.57
2018-11-27T15:18:03.551Z,23.55
2018-11-27T15:20:32.255Z,23.10
2018-11-27T15:23:00.987Z,25.68
2018-11-27T15:25:29.717Z,23.85
2018-11-27T15:27:58.482Z,24.63
2018-11-27T15:30:28.525Z,24.63
2018-11-27T15:33:03.636Z,23.98
2018-11-27T15:35:34.314Z,24.87
2018-11-27T15:38:05.576Z,27.62
2018-11-27T15:40:34.704Z,27.05
2018-11-27T15:43:04.604Z,26.93
2018-11-27T15:45:38.959Z,25.48
2018-11-27T15:48:09.038Z,23.65
2018-11-27T15:50:37.803Z,23.32
2018-11-27T15:53:06.882Z,23.85
2018-11-27T15:55:37.543Z,21.37
2018-11-27T15:58:09.383Z,20.90
2018-11-27T16:00:40.067Z,22.55
2018-11-27T16:03:09.116Z,20.95
2018-11-27T16:05:38.589Z,21.50
2018-11-27T16:08:08.168Z,22.40
2018-11-27T16:10:37.250Z,23.15
2018-11-27T16:13:06.764Z,24.20
2018-11-27T16:15:36.242Z,23.57
2018-11-27T16:18:06.081Z,24.77
2018-11-27T16:20:37.705Z,23.73
2018-11-27T16:23:11.084Z,23.02
2018-11-27T16:25:41.132Z,22.40
2018-11-27T16:28:10.580Z,23.90
2018-11-27T16:30:39.786Z,23.45
2018-11-27T16:33:09.004Z,20.95
2018-11-27T16:35:38.756Z,24.35
2018-11-27T16:38:08.040Z,24.00
2018-11-27T16:40:38.670Z,25.80
2018-11-27T16:43:09.088Z,24.55
2018-11-27T16:45:39.739Z,24.00
2018-11-27T16:48:08.987Z,22.82
2018-11-27T16:50:37.891Z,22.55
2018-11-27T16:53:07.196Z,22.48
2018-11-27T16:55:36.405Z,24.02
2018-11-27T16:58:05.396Z,23.07
2018-11-27T17:00:35.135Z,23.02
2018-11-27T17:03:06.897Z,25.45
2018-11-27T17:05:40.636Z,24.82
2018-11-27T17:08:10.038Z,24.95
2018-11-27T17:10:41.469Z,26.70
2018-11-27T17:13:13.053Z,25.92
2018-11-27T17:15:42.966Z,25.95
2018-11-27T17:18:12.891Z,25.40
2018-11-27T17:20:43.258Z,23.90
2018-11-27T17:23:13.665Z,24.23
2018-11-27T17:25:42.578Z,24.07
2018-11-27T17:28:14.968Z,23.02
2018-11-27T17:30:45.683Z,23.42
2018-11-27T17:33:19.572Z,25.00
2018-11-27T17:35:48.350Z,25.75
2018-11-27T17:38:17.209Z,24.00
2018-11-27T17:40:46.068Z,22.48
2018-11-27T17:43:14.831Z,22.42
2018-11-27T17:45:43.559Z,23.50
2018-11-27T17:48:12.363Z,24.32
2018-11-27T17:50:41.043Z,22.45
2018-11-27T17:53:09.816Z,24.77
2018-11-27T17:55:38.560Z,23.55
2018-11-27T17:58:07.355Z,22.58
2018-11-27T18:00:36.134Z,23.15
2018-11-27T18:03:08.054Z,25.85
2018-11-27T18:05:36.925Z,25.68
2018-11-27T18:08:06.582Z,24.45
2018-11-27T18:10:35.782Z,25.30
2018-11-27T18:13:04.725Z,27.13
2018-11-27T18:15:33.565Z,25.02
2018-11-27T18:18:02.379Z,21.85
2018-11-27T18:20:31.098Z,30.00
2018-11-27T18:22:59.868Z,29.27
2018-11-27T18:25:28.839Z,26.82
2018-11-27T18:27:57.636Z,22.27
2018-11-27T18:30:26.408Z,23.70
2018-11-27T18:32:55.158Z,26.02
2018-11-27T18:35:24.761Z,28.17
2018-11-27T18:37:53.728Z,26.52
2018-11-27T18:40:22.710Z,25.27
2018-11-27T18:42:52.406Z,23.65
2018-11-27T18:45:26.284Z,23.95
2018-11-27T18:47:55.091Z,25.23
2018-11-27T18:50:24.995Z,25.40
2018-11-27T18:52:53.723Z,24.70
2018-11-27T18:55:22.547Z,25.45
2018-11-27T18:57:51.390Z,25.08
2018-11-27T19:00:29.877Z,25.32
2018-11-27T19:02:58.653Z,25.02
2018-11-27T19:05:27.589Z,23.40
2018-11-27T19:07:56.290Z,24.60
2018-11-27T19:10:26.325Z,22.27
2018-11-27T19:12:55.094Z,24.65
2018-11-27T19:15:27.272Z,24.90
2018-11-27T19:17:59.494Z,27.70
2018-11-27T19:20:28.262Z,25.08
2018-11-27T19:22:56.970Z,22.70
2018-11-27T19:25:25.666Z,24.77
2018-11-27T19:27:54.522Z,23.45
2018-11-27T19:30:23.395Z,23.47
2018-11-27T19:32:52.171Z,25.72
2018-11-27T19:35:25.296Z,25.30
2018-11-27T19:37:51.715Z,22.98
2018-11-27T19:40:20.999Z,23.83
2018-11-27T19:42:50.418Z,25.85
2018-11-27T19:45:22.297Z,25.70
2018-11-27T19:47:51.320Z,22.93
2018-11-27T19:50:20.105Z,25.82
2018-11-27T19:52:53.011Z,23.12
2018-11-27T19:55:21.804Z,24.60
2018-11-27T19:57:50.516Z,24.40
2018-11-27T20:00:21.206Z,23.45
2018-11-27T20:02:50.236Z,29.60
2018-11-27T20:05:20.907Z,29.00
2018-11-27T20:07:49.755Z,25.35
2018-11-27T20:10:18.623Z,26.60
2018-11-27T20:12:47.372Z,27.27
2018-11-27T20:15:26.432Z,25.50
2018-11-27T20:17:55.671Z,25.57
2018-11-27T20:20:25.597Z,25.50
2018-11-27T20:22:55.498Z,25.48
2018-11-27T20:25:24.612Z,23.87
2018-11-27T20:27:53.647Z,27.02
2018-11-27T20:30:24.444Z,23.25
2018-11-27T20:32:54.737Z,24.77
2018-11-27T20:35:23.534Z,25.45
2018-11-27T20:37:53.066Z,24.82
2018-11-27T20:40:21.861Z,23.87
2018-11-27T20:42:50.976Z,24.87
2018-11-27T20:45:20.840Z,24.92
2018-11-27T20:48:00.636Z,23.87
2018-11-27T20:50:29.413Z,25.23
2018-11-27T20:52:58.219Z,25.10
2018-11-27T20:55:27.016Z,25.62
2018-11-27T20:57:56.999Z,26.82
2018-11-27T21:00:30.461Z,26.42
2018-11-27T21:03:00.961Z,27.93
2018-11-27T21:05:30.433Z,25.20
2018-11-27T21:07:59.208Z,27.10
2018-11-27T21:10:27.980Z,24.30
2018-11-27T21:12:56.706Z,26.60
2018-11-27T21:15:25.470Z,23.67
2018-11-27T21:17:54.213Z,23.98
2018-11-27T21:20:22.945Z,25.40
2018-11-27T21:22:51.727Z,24.67
2018-11-27T21:25:21.579Z,26.87
2018-11-27T21:27:51.842Z,24.70
2018-11-27T21:30:20.582Z,24.87
2018-11-27T21:32:49.389Z,25.65
2018-11-27T21:35:18.383Z,25.92
2018-11-27T21:37:47.239Z,24.30
2018-11-27T21:40:17.119Z,26.10
2018-11-27T21:42:45.975Z,27.45
2018-11-27T21:45:23.339Z,24.27
2018-11-27T21:47:52.670Z,23.98
2018-11-27T21:50:27.612Z,28.95
2018-11-27T21:52:56.575Z,27.95
2018-11-27T21:55:25.314Z,26.75
2018-11-27T21:57:54.107Z,26.45
2018-11-27T22:00:23.996Z,25.17
2018-11-27T22:02:53.010Z,26.12
2018-11-27T22:05:21.885Z,24.92
2018-11-27T22:07:50.796Z,25.00
2018-11-27T22:10:21.128Z,24.43
2018-11-27T22:12:55.121Z,24.40
2018-11-27T22:15:28.503Z,25.88
2018-11-27T22:17:57.381Z,27.27
2018-11-27T22:20:26.187Z,24.12
2018-11-27T22:22:54.935Z,26.57
2018-11-27T22:25:23.722Z,27.50
2018-11-27T22:27:52.491Z,44.33
2018-11-27T22:30:21.515Z,29.10
2018-11-27T22:32:53.855Z,33.10
2018-11-27T22:35:22.642Z,28.62
2018-11-27T22:37:51.431Z,27.60
2018-11-27T22:40:22.521Z,26.90
2018-11-27T22:42:51.942Z,27.42
2018-11-27T22:45:26.045Z,26.10
2018-11-27T22:47:54.944Z,23.10
2018-11-27T22:50:23.712Z,27.50
2018-11-27T22:52:52.451Z,31.87
2018-11-27T22:55:21.204Z,30.82
2018-11-27T22:57:49.955Z,28.62
2018-11-27T23:00:52.126Z,27.60
2018-11-27T23:03:20.862Z,28.05
2018-11-27T23:05:49.563Z,26.73
2018-11-27T23:08:18.318Z,24.45
2018-11-27T23:10:47.983Z,27.10
2018-11-27T23:13:16.704Z,24.40
2018-11-27T23:15:45.464Z,25.52
2018-11-27T23:18:14.199Z,28.38
2018-11-27T23:20:42.997Z,25.37
2018-11-27T23:23:11.723Z,23.12
2018-11-27T23:25:40.447Z,21.85
2018-11-27T23:28:09.185Z,24.65
2018-11-27T23:30:37.971Z,24.70
2018-11-27T23:33:06.828Z,24.00
2018-11-27T23:35:35.555Z,22.73
2018-11-27T23:38:04.384Z,23.73
2018-11-27T23:40:33.122Z,24.50
2018-11-27T23:43:01.842Z,25.10
2018-11-27T23:45:30.569Z,26.10
2018-11-27T23:47:59.327Z,26.87
2018-11-27T23:50:28.083Z,27.82
2018-11-27T23:52:56.818Z,26.57
2018-11-27T23:55:25.523Z,27.73
2018-11-27T23:57:54.249Z,25.57
